createdAt,value
2022-12-27T00:02:20.424Z,2.10
2022-12-27T00:04:47.328Z,2.40
2022-12-27T00:07:14.229Z,2.53
2022-12-27T00:09:40.902Z,2.00
2022-12-27T00:12:07.799Z,1.70
2022-12-27T00:14:34.432Z,2.25
2022-12-27T00:17:01.095Z,2.42
2022-12-27T00:19:27.781Z,2.03
2022-12-27T00:21:54.488Z,1.67
2022-12-27T00:24:21.462Z,2.05
2022-12-27T00:26:48.210Z,1.92
2022-12-27T00:29:14.911Z,1.95
2022-12-27T00:31:41.852Z,2.42
2022-12-27T00:34:08.603Z,1.80
2022-12-27T00:36:35.457Z,1.77
2022-12-27T00:39:02.463Z,2.40
2022-12-27T00:41:29.211Z,2.05
2022-12-27T00:43:56.281Z,1.88
2022-12-27T00:46:23.115Z,2.25
2022-12-27T00:48:49.785Z,2.33
2022-12-27T00:51:19.540Z,1.77
2022-12-27T00:53:47.163Z,2.35
2022-12-27T00:56:20.725Z,2.10
2022-12-27T00:58:48.068Z,2.22
2022-12-27T01:01:18.132Z,2.00
2022-12-27T01:03:45.097Z,2.22
2022-12-27T01:06:15.562Z,2.28
2022-12-27T01:08:42.977Z,3.03
2022-12-27T01:11:10.571Z,1.60
2022-12-27T01:13:38.546Z,1.73
2022-12-27T01:16:14.126Z,1.92
2022-12-27T01:18:40.963Z,2.17
2022-12-27T01:21:09.440Z,1.65
2022-12-27T01:23:37.048Z,2.15
2022-12-27T01:26:06.774Z,1.95
2022-12-27T01:28:34.102Z,1.73
2022-12-27T01:31:24.964Z,1.80
2022-12-27T01:33:58.572Z,1.73
2022-12-27T01:36:27.179Z,1.92
2022-12-27T01:38:54.140Z,1.88
2022-12-27T01:41:40.973Z,1.85
2022-12-27T01:44:53.272Z,2.13
2022-12-27T01:47:32.010Z,1.75
2022-12-27T01:50:22.612Z,1.88
2022-12-27T01:53:18.913Z,2.50
2022-12-27T01:55:48.362Z,1.60
2022-12-27T01:58:20.346Z,2.00
2022-12-27T02:00:49.055Z,2.13
2022-12-27T02:03:22.410Z,2.25
2022-12-27T02:05:50.879Z,2.07
2022-12-27T02:08:24.208Z,1.85
2022-12-27T02:10:52.301Z,1.75
2022-12-27T02:13:19.748Z,1.95
2022-12-27T02:15:46.536Z,1.95
2022-12-27T02:18:13.603Z,2.38
2022-12-27T02:21:08.437Z,2.00
2022-12-27T02:26:52.969Z,1.65
2022-12-27T02:29:40.577Z,1.80
2022-12-27T02:32:16.197Z,1.42
2022-12-27T02:35:04.800Z,1.80
2022-12-27T02:37:34.211Z,2.03
2022-12-27T02:40:23.078Z,2.08
2022-12-27T02:43:10.168Z,2.70
2022-12-27T02:46:01.208Z,1.85
2022-12-27T02:48:46.684Z,2.13
2022-12-27T02:51:46.489Z,1.95
2022-12-27T02:54:43.385Z,2.38
2022-12-27T02:57:39.207Z,1.70
2022-12-27T03:00:39.856Z,1.80
2022-12-27T03:03:21.289Z,2.10
2022-12-27T03:06:25.615Z,1.67
2022-12-27T03:09:34.333Z,2.08
2022-12-27T03:12:25.858Z,1.60
2022-12-27T03:15:16.993Z,1.80
2022-12-27T03:17:56.717Z,2.22
2022-12-27T03:20:42.009Z,1.77
2022-12-27T03:23:28.584Z,2.75
2022-12-27T03:25:59.985Z,2.25
2022-12-27T03:28:48.042Z,2.10
2022-12-27T03:31:47.142Z,2.00
2022-12-27T03:34:35.734Z,2.10
2022-12-27T03:37:26.098Z,1.85
2022-12-27T03:39:53.057Z,1.77
2022-12-27T03:42:44.655Z,2.17
2022-12-27T03:45:11.769Z,2.17
2022-12-27T03:48:10.449Z,2.15
2022-12-27T03:50:48.895Z,1.98
2022-12-27T03:53:25.304Z,2.00
2022-12-27T03:55:52.752Z,2.08
2022-12-27T03:58:19.454Z,2.40
2022-12-27T04:00:46.236Z,1.88
2022-12-27T04:03:12.965Z,2.67
2022-12-27T04:05:39.647Z,2.38
2022-12-27T04:08:25.125Z,1.83
2022-12-27T04:11:10.273Z,1.85
2022-12-27T04:13:55.872Z,2.40
2022-12-27T04:16:41.046Z,1.88
2022-12-27T04:19:26.077Z,1.90
2022-12-27T04:22:11.374Z,1.90
2022-12-27T04:24:56.721Z,1.70
2022-12-27T04:27:42.041Z,1.95
2022-12-27T04:30:27.917Z,2.08
2022-12-27T04:33:13.339Z,1.92
2022-12-27T04:35:40.015Z,2.00
2022-12-27T04:38:06.752Z,2.05
2022-12-27T04:40:52.129Z,2.20
2022-12-27T04:43:37.515Z,2.03
2022-12-27T04:46:23.021Z,1.80
2022-12-27T04:49:08.302Z,1.70
2022-12-27T04:51:53.654Z,2.08
2022-12-27T04:54:41.119Z,1.85
2022-12-27T04:57:07.913Z,2.30
2022-12-27T04:59:53.121Z,1.83
2022-12-27T05:02:20.202Z,1.90
2022-12-27T05:04:48.283Z,1.85
2022-12-27T05:07:33.945Z,2.13
2022-12-27T05:10:21.629Z,2.15
2022-12-27T05:13:07.124Z,2.05
2022-12-27T05:15:33.866Z,1.95
2022-12-27T05:18:00.567Z,2.03
2022-12-27T05:20:27.278Z,1.92
2022-12-27T05:23:12.676Z,1.83
2022-12-27T05:25:43.767Z,1.90
2022-12-27T05:28:12.166Z,1.60
2022-12-27T05:30:41.482Z,1.90
2022-12-27T05:33:08.718Z,1.73
2022-12-27T05:35:35.863Z,1.45
2022-12-27T05:38:03.112Z,2.20
2022-12-27T05:40:29.828Z,1.63
2022-12-27T05:42:59.664Z,1.50
2022-12-27T05:45:26.621Z,2.15
2022-12-27T05:47:53.380Z,1.77
2022-12-27T05:50:20.269Z,1.70
2022-12-27T05:52:46.978Z,1.63
2022-12-27T05:55:13.635Z,1.98
2022-12-27T05:57:40.489Z,2.05
2022-12-27T06:00:07.835Z,1.92
2022-12-27T06:02:34.763Z,1.50
2022-12-27T06:05:01.553Z,2.13
2022-12-27T06:07:28.196Z,1.38
2022-12-27T06:09:54.911Z,1.95
2022-12-27T06:12:21.546Z,1.55
2022-12-27T06:14:48.335Z,1.63
2022-12-27T06:17:15.191Z,2.17
2022-12-27T06:19:41.846Z,1.88
2022-12-27T06:22:08.509Z,1.95
2022-12-27T06:24:35.285Z,1.67
2022-12-27T06:27:01.922Z,1.70
2022-12-27T06:29:28.608Z,1.17
2022-12-27T06:31:55.341Z,1.35
2022-12-27T06:34:23.157Z,1.48
2022-12-27T06:36:51.470Z,1.95
2022-12-27T06:39:18.908Z,1.75
2022-12-27T06:41:46.499Z,1.60
2022-12-27T06:44:13.123Z,1.65
2022-12-27T06:46:39.787Z,1.77
2022-12-27T06:49:06.537Z,1.83
2022-12-27T06:51:34.247Z,2.85
2022-12-27T06:54:01.027Z,1.70
2022-12-27T06:56:27.788Z,1.67
2022-12-27T06:58:54.669Z,3.95
2022-12-27T07:01:28.070Z,5.03
2022-12-27T07:03:57.193Z,2.13
2022-12-27T07:06:25.496Z,2.10
2022-12-27T07:08:52.702Z,2.33
2022-12-27T07:11:20.939Z,1.80
2022-12-27T07:13:52.801Z,1.73
2022-12-27T07:16:22.456Z,1.48
2022-12-27T07:18:50.212Z,2.50
2022-12-27T07:21:22.362Z,1.95
2022-12-27T07:23:49.715Z,1.92
2022-12-27T07:26:19.352Z,2.00
2022-12-27T07:28:46.682Z,2.03
2022-12-27T07:31:19.981Z,1.80
2022-12-27T07:33:47.000Z,2.08
2022-12-27T07:36:19.968Z,1.67
2022-12-27T07:38:47.187Z,1.98
2022-12-27T07:41:14.116Z,1.58
2022-12-27T07:43:40.931Z,1.88
2022-12-27T07:46:11.056Z,1.70
2022-12-27T07:48:38.058Z,1.92
2022-12-27T07:51:05.880Z,1.52
2022-12-27T07:53:33.597Z,1.55
2022-12-27T07:56:04.991Z,1.50
2022-12-27T07:58:36.104Z,1.80
2022-12-27T08:01:03.847Z,1.92
2022-12-27T08:03:31.562Z,1.63
2022-12-27T08:05:58.495Z,1.55
2022-12-27T08:08:33.308Z,1.63
2022-12-27T08:11:05.279Z,1.88
2022-12-27T08:13:33.233Z,1.90
2022-12-27T08:16:00.342Z,2.60
2022-12-27T08:18:27.350Z,2.30
2022-12-27T08:20:54.430Z,1.92
2022-12-27T08:23:21.396Z,1.80
2022-12-27T08:25:48.961Z,2.08
2022-12-27T08:28:18.429Z,1.90
2022-12-27T08:30:46.877Z,1.73
2022-12-27T08:33:15.194Z,2.00
2022-12-27T08:35:53.303Z,1.65
2022-12-27T08:38:20.999Z,1.63
2022-12-27T08:40:47.719Z,1.67
2022-12-27T08:43:15.368Z,1.60
2022-12-27T08:45:42.389Z,1.90
2022-12-27T08:48:09.267Z,1.58
2022-12-27T08:50:36.395Z,1.70
2022-12-27T08:53:04.473Z,2.22
2022-12-27T08:55:31.942Z,2.05
2022-12-27T08:58:12.228Z,1.90
2022-12-27T09:00:42.663Z,1.83
2022-12-27T09:03:10.625Z,1.55
2022-12-27T09:05:41.674Z,2.75
2022-12-27T09:08:09.223Z,1.70
2022-12-27T09:10:35.890Z,2.00
2022-12-27T09:13:02.611Z,1.83
2022-12-27T09:15:29.432Z,1.38
2022-12-27T09:17:56.182Z,2.22
2022-12-27T09:20:23.054Z,2.13
2022-12-27T09:22:50.009Z,1.88
2022-12-27T09:25:16.773Z,1.80
2022-12-27T09:27:43.501Z,1.80
2022-12-27T09:30:10.401Z,2.20
2022-12-27T09:32:43.630Z,2.05
2022-12-27T09:35:10.277Z,1.65
2022-12-27T09:37:36.992Z,1.45
2022-12-27T09:40:03.929Z,1.90
2022-12-27T09:43:20.673Z,1.70
2022-12-27T09:45:53.293Z,2.25
2022-12-27T09:48:39.618Z,1.80
2022-12-27T09:51:26.983Z,2.00
2022-12-27T09:54:22.952Z,2.00
2022-12-27T09:59:44.335Z,2.42
2022-12-27T10:02:24.682Z,2.10
2022-12-27T10:05:19.293Z,2.25
2022-12-27T10:07:58.337Z,1.83
2022-12-27T10:10:42.564Z,2.00
2022-12-27T10:13:27.396Z,1.80
2022-12-27T10:16:12.603Z,1.98
2022-12-27T10:19:04.280Z,2.20
2022-12-27T10:21:34.859Z,2.05
2022-12-27T10:24:24.050Z,2.05
2022-12-27T10:26:54.636Z,1.80
2022-12-27T10:29:24.039Z,1.55
2022-12-27T10:31:51.135Z,2.17
2022-12-27T10:34:24.520Z,2.00
2022-12-27T10:36:53.052Z,1.67
2022-12-27T10:39:26.733Z,2.38
2022-12-27T10:42:26.757Z,1.90
2022-12-27T10:45:32.384Z,1.60
2022-12-27T10:48:21.616Z,1.85
2022-12-27T10:51:09.110Z,2.13
2022-12-27T10:53:37.473Z,2.47
2022-12-27T10:56:13.918Z,2.60
2022-12-27T10:58:51.561Z,2.67
2022-12-27T11:01:30.000Z,1.90
2022-12-27T11:04:14.350Z,1.85
2022-12-27T11:06:46.820Z,1.90
2022-12-27T11:09:50.388Z,2.42
2022-12-27T11:12:28.540Z,2.10
2022-12-27T11:15:01.416Z,2.10
2022-12-27T11:17:47.484Z,2.13
2022-12-27T11:20:37.460Z,2.10
2022-12-27T11:23:11.469Z,1.80
2022-12-27T11:25:57.973Z,2.50
2022-12-27T11:28:38.285Z,2.03
2022-12-27T11:31:16.867Z,1.88
2022-12-27T11:33:52.929Z,2.00
2022-12-27T11:36:34.678Z,4.75
2022-12-27T11:39:02.143Z,2.33
2022-12-27T11:41:40.723Z,2.28
2022-12-27T11:44:36.295Z,2.50
2022-12-27T11:47:14.834Z,1.90
2022-12-27T11:50:10.079Z,1.95
2022-12-27T11:52:48.945Z,1.92
2022-12-27T11:55:40.657Z,2.15
2022-12-27T11:58:48.834Z,1.88
2022-12-27T12:01:25.713Z,2.33
2022-12-27T12:04:14.286Z,1.98
2022-12-27T12:07:17.232Z,1.83
2022-12-27T12:10:11.152Z,1.90
2022-12-27T12:13:08.702Z,2.10
2022-12-27T12:15:54.323Z,2.75
2022-12-27T12:18:20.955Z,1.90
2022-12-27T12:21:01.267Z,1.77
2022-12-27T12:23:52.768Z,1.90
2022-12-27T12:26:27.053Z,2.00
2022-12-27T12:32:12.018Z,2.08
2022-12-27T12:34:59.661Z,2.53
2022-12-27T12:37:52.820Z,2.00
2022-12-27T12:40:25.625Z,2.00
2022-12-27T12:43:10.369Z,1.98
2022-12-27T12:46:04.313Z,2.22
2022-12-27T12:49:25.896Z,1.98
2022-12-27T12:52:07.530Z,2.63
2022-12-27T12:55:11.365Z,2.15
2022-12-27T12:58:30.822Z,2.15
2022-12-27T13:01:28.061Z,2.20
2022-12-27T13:04:15.722Z,2.85
2022-12-27T13:07:10.112Z,2.38
2022-12-27T13:09:59.765Z,2.10
2022-12-27T13:12:37.827Z,2.05
2022-12-27T13:15:18.992Z,2.67
2022-12-27T13:18:09.570Z,2.20
2022-12-27T13:21:02.651Z,2.15
2022-12-27T13:23:34.539Z,3.83
2022-12-27T13:26:12.914Z,2.30
2022-12-27T13:29:14.692Z,1.98
2022-12-27T13:32:11.151Z,2.30
2022-12-27T13:34:52.791Z,2.30
2022-12-27T13:37:47.028Z,2.03
2022-12-27T13:40:34.680Z,2.08
2022-12-27T13:43:43.281Z,2.70
2022-12-27T13:46:46.960Z,2.42
2022-12-27T13:49:41.569Z,2.20
2022-12-27T13:52:29.542Z,2.42
2022-12-27T13:55:14.984Z,1.92
2022-12-27T13:58:39.637Z,1.88
2022-12-27T14:01:28.002Z,2.08
2022-12-27T14:04:01.197Z,1.83
2022-12-27T14:06:50.705Z,2.40
2022-12-27T14:09:44.657Z,1.70
2022-12-27T14:12:38.805Z,2.47
2022-12-27T14:15:08.290Z,1.95
2022-12-27T14:17:46.591Z,2.10
2022-12-27T14:20:37.055Z,2.60
2022-12-27T14:23:26.575Z,2.40
2022-12-27T14:26:23.481Z,1.92
2022-12-27T14:29:43.942Z,1.80
2022-12-27T14:32:44.031Z,2.00
2022-12-27T14:35:30.619Z,1.98
2022-12-27T14:38:13.962Z,2.65
2022-12-27T14:41:14.902Z,2.28
2022-12-27T14:44:20.890Z,2.08
2022-12-27T14:47:08.339Z,2.40
2022-12-27T14:50:15.125Z,2.40
2022-12-27T14:53:12.751Z,2.08
2022-12-27T14:56:12.616Z,1.95
2022-12-27T14:58:45.238Z,1.85
2022-12-27T15:01:29.212Z,2.08
2022-12-27T15:04:32.370Z,2.38
2022-12-27T15:07:18.878Z,2.10
2022-12-27T15:10:00.280Z,2.35
2022-12-27T15:12:45.591Z,2.10
2022-12-27T15:15:43.602Z,2.10
2022-12-27T15:18:24.681Z,2.20
2022-12-27T15:20:51.315Z,2.22
2022-12-27T15:23:29.951Z,2.03
2022-12-27T15:26:05.708Z,2.20
2022-12-27T15:28:58.068Z,2.40
2022-12-27T15:31:30.128Z,2.00
2022-12-27T15:34:30.714Z,2.20
2022-12-27T15:36:57.927Z,2.30
2022-12-27T15:39:33.805Z,2.33
2022-12-27T15:42:19.010Z,2.25
2022-12-27T15:45:07.479Z,2.33
2022-12-27T15:48:07.292Z,2.50
2022-12-27T15:50:55.296Z,2.00
2022-12-27T15:53:53.095Z,2.00
2022-12-27T15:56:56.956Z,1.90
2022-12-27T15:59:51.686Z,2.20
2022-12-27T16:02:18.536Z,2.28
2022-12-27T16:05:02.473Z,2.22
2022-12-27T16:07:58.493Z,2.00
2022-12-27T16:10:28.460Z,2.30
2022-12-27T16:12:58.508Z,2.85
2022-12-27T16:15:34.829Z,2.67
2022-12-27T16:18:03.174Z,2.85
2022-12-27T16:20:31.554Z,3.20
2022-12-27T16:23:02.967Z,3.65
2022-12-27T16:25:35.477Z,2.92
2022-12-27T16:28:26.120Z,3.53
2022-12-27T16:30:55.407Z,3.25
2022-12-27T16:33:28.109Z,3.55
2022-12-27T16:36:15.864Z,3.38
2022-12-27T16:38:54.441Z,3.88
2022-12-27T16:41:24.115Z,4.25
2022-12-27T16:44:00.047Z,3.28
2022-12-27T16:46:54.909Z,3.45
2022-12-27T16:52:20.101Z,3.90
2022-12-27T16:55:17.854Z,3.97
2022-12-27T16:58:19.610Z,3.60
2022-12-27T17:00:49.325Z,4.30
2022-12-27T17:03:21.736Z,4.43
2022-12-27T17:06:13.478Z,3.90
2022-12-27T17:08:36.590Z,3.35
2022-12-27T17:11:26.486Z,3.85
2022-12-27T17:14:08.415Z,4.07
2022-12-27T17:16:51.346Z,3.45
2022-12-27T17:19:33.880Z,4.18
2022-12-27T17:22:04.563Z,3.78
2022-12-27T17:24:31.447Z,3.88
2022-12-27T17:27:33.417Z,4.13
2022-12-27T17:30:22.415Z,5.30
2022-12-27T17:33:08.004Z,8.10
2022-12-27T17:36:08.925Z,8.00
2022-12-27T17:38:50.870Z,8.48
2022-12-27T17:42:06.457Z,10.93
2022-12-27T17:44:48.762Z,10.23
2022-12-27T17:47:42.184Z,10.95
2022-12-27T17:50:24.038Z,17.27
2022-12-27T17:53:27.904Z,10.98
2022-12-27T17:56:30.205Z,14.38
2022-12-27T17:59:10.287Z,11.13
2022-12-27T18:01:44.541Z,9.65
2022-12-27T18:04:26.740Z,11.82
2022-12-27T18:07:01.550Z,11.93
2022-12-27T18:09:37.364Z,12.25
2022-12-27T18:12:22.264Z,7.38
2022-12-27T18:15:03.129Z,6.00
2022-12-27T18:17:45.169Z,5.90
2022-12-27T18:20:27.392Z,6.10
2022-12-27T18:23:03.098Z,10.63
2022-12-27T18:25:44.705Z,7.03
2022-12-27T18:28:32.537Z,6.53
2022-12-27T18:31:35.636Z,4.45
2022-12-27T18:34:07.382Z,3.80
2022-12-27T18:36:39.175Z,3.95
2022-12-27T18:39:18.076Z,4.32
2022-12-27T18:41:50.728Z,3.88
2022-12-27T18:44:27.071Z,3.70
2022-12-27T18:47:04.140Z,4.22
2022-12-27T18:49:34.695Z,3.50
2022-12-27T18:52:11.699Z,3.72
2022-12-27T18:54:39.012Z,3.60
2022-12-27T18:57:24.622Z,4.22
2022-12-27T19:00:17.273Z,3.60
2022-12-27T19:02:44.700Z,4.22
2022-12-27T19:05:20.579Z,4.10
2022-12-27T19:07:49.356Z,4.60
2022-12-27T19:10:18.469Z,4.97
2022-12-27T19:12:46.587Z,4.50
2022-12-27T19:15:22.091Z,4.43
2022-12-27T19:17:53.118Z,4.90
2022-12-27T19:20:40.812Z,4.32
2022-12-27T19:23:32.490Z,4.40
2022-12-27T19:26:04.775Z,4.68
2022-12-27T19:28:32.598Z,4.63
2022-12-27T19:31:21.484Z,4.43
2022-12-27T19:34:09.383Z,4.15
2022-12-27T19:36:42.111Z,4.50
2022-12-27T19:39:19.776Z,5.45
2022-12-27T19:41:47.749Z,4.30
2022-12-27T19:44:14.907Z,7.00
2022-12-27T19:46:41.596Z,7.10
2022-12-27T19:49:32.238Z,7.38
2022-12-27T19:51:56.693Z,7.63
2022-12-27T19:54:24.845Z,7.68
2022-12-27T19:56:51.761Z,8.80
2022-12-27T19:59:24.097Z,8.95
2022-12-27T20:01:52.603Z,10.57
2022-12-27T20:04:19.488Z,8.35
2022-12-27T20:06:48.452Z,6.38
2022-12-27T20:09:19.655Z,6.10
2022-12-27T20:11:48.522Z,6.57
2022-12-27T20:14:17.322Z,7.00
2022-12-27T20:16:45.553Z,6.30
2022-12-27T20:19:15.440Z,5.03
2022-12-27T20:21:42.494Z,4.53
2022-12-27T20:24:12.193Z,5.20
2022-12-27T20:26:39.471Z,5.72
2022-12-27T20:29:06.309Z,4.90
2022-12-27T20:31:33.101Z,5.25
2022-12-27T20:33:59.808Z,5.35
2022-12-27T20:36:26.545Z,5.40
2022-12-27T20:38:53.260Z,4.25
2022-12-27T20:41:21.793Z,4.38
2022-12-27T20:43:53.124Z,5.45
2022-12-27T20:46:19.897Z,5.00
2022-12-27T20:48:47.131Z,5.53
2022-12-27T20:51:17.771Z,4.80
2022-12-27T20:53:46.814Z,4.05
2022-12-27T20:56:14.025Z,4.90
2022-12-27T20:58:40.660Z,5.10
2022-12-27T21:01:15.096Z,5.07
2022-12-27T21:03:42.786Z,5.32
2022-12-27T21:06:12.170Z,5.40
2022-12-27T21:08:46.493Z,4.97
2022-12-27T21:11:21.377Z,5.38
2022-12-27T21:13:49.003Z,4.65
2022-12-27T21:16:19.478Z,5.40
2022-12-27T21:18:47.149Z,5.03
2022-12-27T21:21:19.399Z,5.50
2022-12-27T21:23:47.160Z,5.68
2022-12-27T21:26:15.496Z,5.68
2022-12-27T21:28:42.681Z,5.30
2022-12-27T21:31:10.119Z,5.22
2022-12-27T21:33:37.314Z,5.53
2022-12-27T21:36:12.538Z,5.68
2022-12-27T21:38:39.726Z,5.32
2022-12-27T21:41:18.774Z,5.53
2022-12-27T21:43:47.283Z,5.15
2022-12-27T21:46:25.911Z,5.72
2022-12-27T21:48:59.032Z,5.78
2022-12-27T21:51:26.776Z,5.05
2022-12-27T21:53:54.169Z,5.00
2022-12-27T21:56:21.718Z,5.00
2022-12-27T21:58:48.485Z,4.55
2022-12-27T22:01:18.068Z,5.05
2022-12-27T22:03:47.220Z,4.53
2022-12-27T22:06:17.341Z,5.18
2022-12-27T22:08:46.658Z,4.68
2022-12-27T22:11:14.251Z,4.57
2022-12-27T22:13:41.899Z,5.00
2022-12-27T22:16:12.895Z,4.85
2022-12-27T22:18:44.268Z,4.72
2022-12-27T22:21:17.062Z,4.60
2022-12-27T22:23:46.377Z,5.47
2022-12-27T22:26:16.749Z,4.50
2022-12-27T22:28:43.829Z,4.40
2022-12-27T22:31:16.548Z,4.50
2022-12-27T22:33:43.276Z,4.55
2022-12-27T22:36:19.157Z,4.78
2022-12-27T22:38:49.774Z,4.70
2022-12-27T22:41:22.158Z,4.07
2022-12-27T22:43:54.221Z,4.40
2022-12-27T22:46:21.659Z,4.40
2022-12-27T22:48:53.612Z,3.72
2022-12-27T22:51:29.049Z,4.18
2022-12-27T22:53:56.972Z,4.00
2022-12-27T22:56:26.871Z,3.85
2022-12-27T22:58:54.007Z,3.88
2022-12-27T23:01:32.649Z,3.92
2022-12-27T23:04:01.416Z,4.90
2022-12-27T23:06:28.854Z,3.95
2022-12-27T23:08:55.823Z,3.50
2022-12-27T23:11:28.011Z,4.38
2022-12-27T23:13:58.263Z,4.55
2022-12-27T23:16:25.888Z,3.72
2022-12-27T23:18:52.976Z,4.53
2022-12-27T23:21:24.205Z,4.68
2022-12-27T23:23:52.562Z,4.07
2022-12-27T23:26:22.356Z,4.30
2022-12-27T23:28:51.546Z,4.38
2022-12-27T23:31:20.022Z,4.15
2022-12-27T23:33:47.323Z,4.15
2022-12-27T23:36:14.431Z,3.95
2022-12-27T23:38:42.454Z,4.07
2022-12-27T23:41:14.399Z,3.97
2022-12-27T23:43:52.201Z,3.55
2022-12-27T23:46:40.600Z,4.10
2022-12-27T23:49:07.577Z,4.22
2022-12-27T23:51:34.460Z,4.32
2022-12-27T23:54:01.265Z,4.35
2022-12-27T23:56:30.606Z,3.88
2022-12-27T23:58:58.874Z,4.10
